Time;durP1;ratioP1;P1;durP2;ratioP2;P2;SDS_P1;SDS_P2;PMS_P1;PMS_P2;Temp;Humidity;BMP_temperature;BMP_pressure;BME280_temperature;BME280_humidity;BME280_pressure;Samples;Min_cycle;Max_cycle;Signal;HPM_P1;HPM_P2
2022/03/22 00:02:04;;;;;;;;;;;;;;;0.15;55.71;102223.78;1895430;75;20196;-59
2022/03/22 00:04:32;;;;;;;;;;;;;;;0.03;55.63;102224.72;1909111;75;20215;-62
2022/03/22 00:06:59;;;;;;;;;;;;;;;-0.03;55.48;102222.84;1898605;75;20215;-63
2022/03/22 00:09:27;;;;;;;;;;;;;;;-0.03;55.11;102219.82;1899465;75;20107;-61
2022/03/22 00:11:56;;;;;;;;;;;;;;;-0.06;55.65;102235.26;1899915;75;20114;-62
2022/03/22 00:14:23;;;;;;;;;;;;;;;-0.11;55.35;102218.74;1895607;75;20151;-64
2022/03/22 00:16:53;;;;;;;;;;;;;;;-0.11;55.20;102214.86;1908114;75;20111;-63
2022/03/22 00:19:21;;;;;;;;;;;;;;;-0.12;55.42;102224.73;1902637;75;20149;-62
2022/03/22 00:21:50;;;;;;;;;;;;;;;-0.21;55.42;102225.77;1912890;75;20110;-63
2022/03/22 00:24:18;;;;;;;;;;;;;;;-0.26;56.03;102218.27;1885855;75;20567;-64
2022/03/22 00:26:45;;;;;;;;;;;;;;;-0.28;55.49;102207.00;1890731;75;20105;-66
2022/03/22 00:29:13;;;;;;;;;;;;;;;-0.29;55.27;102207.43;1884766;75;20394;-66
2022/03/22 00:31:41;;;;;;;;;;;;;;;-0.29;55.38;102211.31;1887712;75;20115;-61
2022/03/22 00:34:13;;;;;;;;;;;;;;;-0.32;57.22;102215.52;1924868;75;20110;-62
2022/03/22 00:36:43;;;;;;;;;;;;;;;-0.45;56.00;102209.97;1924609;75;20118;-61
2022/03/22 00:39:10;;;;;;;;;;;;;;;-0.47;56.19;102215.52;1924475;75;20106;-61
2022/03/22 00:41:38;;;;;;;;;;;;;;;-0.53;56.09;102214.05;1878043;75;20125;-63
2022/03/22 00:44:06;;;;;;;;;;;;;;;-0.53;55.92;102210.59;1880670;75;20190;-61
2022/03/22 00:46:33;;;;;;;;;;;;;;;-0.54;55.65;102212.28;1897433;76;20108;-61
2022/03/22 00:49:02;;;;;;;;;;;;;;;-0.56;55.91;102215.23;1889366;75;20116;-63
2022/03/22 00:51:30;;;;;;;;;;;;;;;-0.60;56.12;102206.50;1882715;75;20147;-61
2022/03/22 00:54:02;;;;;;;;;;;;;;;-0.64;56.56;102210.27;1885402;75;20239;-61
2022/03/22 00:56:28;;;;;;;;;;;;;;;-0.69;56.61;102211.40;1886376;75;20119;-61
2022/03/22 01:01:41;;;;;;;;;;;;;;;-0.71;56.12;102201.84;1864268;76;20117;-62
2022/03/22 01:04:09;;;;;;;;;;;;;;;-0.70;56.16;102205.78;1875850;75;20107;-63
2022/03/22 01:06:38;;;;;;;;;;;;;;;-0.68;56.00;102210.97;1885989;75;20160;-60
2022/03/22 01:09:05;;;;;;;;;;;;;;;-0.67;55.76;102210.16;1889687;75;20131;-63
2022/03/22 01:11:33;;;;;;;;;;;;;;;-0.67;55.63;102207.57;1903953;75;20155;-60
2022/03/22 01:14:01;;;;;;;;;;;;;;;-0.69;55.51;102201.05;1873650;75;20119;-60
2022/03/22 01:16:29;;;;;;;;;;;;;;;-0.69;55.37;102204.06;1893897;75;20151;-60
2022/03/22 01:18:56;;;;;;;;;;;;;;;-0.69;55.43;102205.36;1883836;75;20183;-63
2022/03/22 01:21:24;;;;;;;;;;;;;;;-0.68;55.59;102200.63;1920199;75;20118;-62
2022/03/22 01:23:52;;;;;;;;;;;;;;;-0.71;55.50;102205.73;1907507;75;20117;-62
2022/03/22 01:26:20;;;;;;;;;;;;;;;-0.73;55.48;102189.28;1855691;77;20109;-63
2022/03/22 01:28:48;;;;;;;;;;;;;;;-0.73;55.29;102190.16;1855741;76;20382;-61
2022/03/22 01:31:16;;;;;;;;;;;;;;;-0.72;55.43;102196.20;1855845;77;20125;-62
2022/03/22 01:33:44;;;;;;;;;;;;;;;-0.75;55.45;102188.36;1855786;77;20117;-63
2022/03/22 01:36:11;;;;;;;;;;;;;;;-0.77;55.96;102190.90;1855724;77;20176;-62
2022/03/22 01:38:40;;;;;;;;;;;;;;;-0.82;56.08;102197.20;1855802;77;20117;-62
2022/03/22 01:41:07;;;;;;;;;;;;;;;-0.87;55.71;102194.88;1855735;77;20130;-62
2022/03/22 01:43:35;;;;;;;;;;;;;;;-0.91;55.53;102190.45;1855774;77;20120;-62
2022/03/22 01:46:03;;;;;;;;;;;;;;;-0.93;55.45;102189.53;1855824;77;20107;-61
2022/03/22 01:48:32;;;;;;;;;;;;;;;-0.93;56.06;102186.95;1855754;77;20151;-60
2022/03/22 01:51:00;;;;;;;;;;;;;;;-0.96;55.88;102194.59;1855743;77;20113;-63
2022/03/22 01:53:28;;;;;;;;;;;;;;;-0.98;55.70;102199.75;1855762;77;20164;-64
2022/03/22 01:55:56;;;;;;;;;;;;;;;-0.99;55.72;102199.69;1855773;77;20116;-61
2022/03/22 01:58:24;;;;;;;;;;;;;;;-1.01;56.07;102202.22;1855820;77;20121;-62
2022/03/22 02:05:51;;;;;;;;;;;;;;;-1.02;55.97;102199.16;1854655;77;20105;-63
2022/03/22 02:06:08;;;;;;;;;;;;;;;-1.02;55.90;102202.17;1853090;77;20160;-61
2022/03/22 02:08:35;;;;;;;;;;;;;;;-1.04;55.72;102199.53;1853337;77;20132;-62
2022/03/22 02:11:03;;;;;;;;;;;;;;;-1.04;55.57;102201.25;1853148;77;20124;-62
2022/03/22 02:13:31;;;;;;;;;;;;;;;-1.05;55.56;102203.35;1852968;77;20120;-62
2022/03/22 02:16:05;;;;;;;;;;;;;;;-1.06;56.55;102200.32;1853113;77;20128;-61
2022/03/22 02:18:30;;;;;;;;;;;;;;;-1.09;57.18;102198.92;1854023;77;20152;-62
2022/03/22 02:20:58;;;;;;;;;;;;;;;-1.10;56.75;102199.77;1855835;77;20121;-62
2022/03/22 02:23:36;;;;;;;;;;;;;;;-1.17;57.09;102202.13;1855839;77;20152;-67
2022/03/22 02:26:05;;;;;;;;;;;;;;;-1.21;56.77;102211.91;1854222;76;20120;-67
2022/03/22 02:28:32;;;;;;;;;;;;;;;-1.24;56.75;102207.92;1853396;77;20109;-66
2022/03/22 02:31:01;;;;;;;;;;;;;;;-1.27;56.82;102210.43;1853519;77;20394;-66
2022/03/22 02:33:28;;;;;;;;;;;;;;;-1.29;56.53;102213.37;1853367;77;20125;-67
2022/03/22 02:35:56;;;;;;;;;;;;;;;-1.29;56.43;102215.06;1853406;77;20105;-61
2022/03/22 02:38:24;;;;;;;;;;;;;;;-1.30;56.28;102209.02;1853437;77;20152;-63
2022/03/22 02:40:51;;;;;;;;;;;;;;;-1.32;56.34;102213.27;1853384;77;20168;-61
2022/03/22 02:43:19;;;;;;;;;;;;;;;-1.33;56.72;102220.54;1853509;77;20125;-60
2022/03/22 02:45:47;;;;;;;;;;;;;;;-1.39;57.06;102220.34;1853423;77;20195;-60
2022/03/22 02:48:17;;;;;;;;;;;;;;;-1.46;58.30;102226.99;1853390;77;20109;-61
2022/03/22 02:50:44;;;;;;;;;;;;;;;-1.51;57.83;102240.58;1853380;77;20121;-60
2022/03/22 02:53:13;;;;;;;;;;;;;;;-1.54;57.39;102232.33;1853277;77;20117;-61
2022/03/22 02:55:41;;;;;;;;;;;;;;;-1.57;57.25;102234.41;1853518;77;20155;-62
2022/03/22 02:58:08;;;;;;;;;;;;;;;-1.57;57.23;102242.16;1853378;77;20151;-61
2022/03/22 03:00:36;;;;;;;;;;;;;;;-1.64;57.26;102241.47;1853439;77;20148;-63
2022/03/22 03:03:05;;;;;;;;;;;;;;;-1.69;57.59;102249.46;1853501;77;20441;-62
2022/03/22 03:05:33;;;;;;;;;;;;;;;-1.73;58.03;102247.60;1853343;77;20101;-62
2022/03/22 03:08:01;;;;;;;;;;;;;;;-1.75;57.90;102244.09;1853339;77;20117;-62
2022/03/22 03:10:31;;;;;;;;;;;;;;;-1.74;57.82;102244.54;1853413;77;20155;-59
2022/03/22 03:13:03;;;;;;;;;;;;;;;-1.75;57.90;102243.67;1853377;77;20109;-60
2022/03/22 03:15:31;;;;;;;;;;;;;;;-1.75;57.69;102242.80;1853401;77;20108;-61
2022/03/22 03:17:59;;;;;;;;;;;;;;;-1.73;57.53;102237.27;1872304;76;20150;-65
2022/03/22 03:20:28;;;;;;;;;;;;;;;-1.73;57.39;102235.98;1889137;76;20184;-63
2022/03/22 03:22:56;;;;;;;;;;;;;;;-1.72;57.28;102235.14;1889129;76;20404;-59
2022/03/22 03:25:24;;;;;;;;;;;;;;;-1.73;57.63;102242.44;1890576;75;20150;-62
2022/03/22 03:27:52;;;;;;;;;;;;;;;-1.81;58.07;102249.02;1903532;75;20115;-61
2022/03/22 03:30:20;;;;;;;;;;;;;;;-1.83;57.94;102243.78;1903480;75;20404;-63
2022/03/22 03:32:48;;;;;;;;;;;;;;;-1.81;57.69;102249.91;1903379;75;20127;-64
2022/03/22 03:35:16;;;;;;;;;;;;;;;-1.78;57.67;102253.00;1903497;75;20111;-64
2022/03/22 03:37:45;;;;;;;;;;;;;;;-1.77;57.44;102250.48;1903436;75;20119;-63
2022/03/22 03:40:13;;;;;;;;;;;;;;;-1.75;57.28;102262.16;1903452;75;20115;-64
2022/03/22 03:42:44;;;;;;;;;;;;;;;-1.74;57.37;102262.62;1903429;75;20103;-64
2022/03/22 03:47:59;;;;;;;;;;;;;;;-1.63;57.30;102263.87;1903469;75;20189;-60
2022/03/22 03:50:27;;;;;;;;;;;;;;;-1.51;57.25;102263.45;1903405;75;20255;-61
2022/03/22 03:52:54;;;;;;;;;;;;;;;-1.40;57.22;102266.41;1903364;75;20150;-64
2022/03/22 03:55:22;;;;;;;;;;;;;;;-1.29;57.15;102265.06;1903410;75;20119;-64
2022/03/22 03:57:50;;;;;;;;;;;;;;;-1.14;57.27;102272.84;1903400;75;20107;-62
2022/03/22 04:00:19;;;;;;;;;;;;;;;-1.03;57.36;102268.95;1903547;75;20119;-64
2022/03/22 04:02:47;;;;;;;;;;;;;;;-0.83;57.22;102270.47;1903538;75;20447;-62
2022/03/22 04:05:14;;;;;;;;;;;;;;;-0.59;57.01;102273.34;1903457;75;20115;-62
2022/03/22 04:07:42;;;;;;;;;;;;;;;-0.31;56.87;102275.53;1903479;75;20150;-62
2022/03/22 04:10:10;;;;;;;;;;;;;;;-0.07;56.70;102274.95;1903402;75;20146;-64
2022/03/22 04:12:42;;;;;;;;;;;;;;;0.20;56.54;102271.38;1903538;75;20119;-64
2022/03/22 04:15:10;;;;;;;;;;;;;;;0.43;56.27;102271.17;1903424;75;20115;-64
2022/03/22 04:17:38;;;;;;;;;;;;;;;0.65;56.31;102276.09;1879654;75;20118;-62
2022/03/22 04:20:07;;;;;;;;;;;;;;;0.80;56.46;102282.09;1841560;78;20188;-61
2022/03/22 04:22:35;;;;;;;;;;;;;;;0.98;56.27;102275.20;1841538;78;20490;-61
2022/03/22 04:25:04;;;;;;;;;;;;;;;1.17;56.21;102284.31;1841603;78;20129;-62
2022/03/22 04:33:03;;;;;;;;;;;;;;;1.92;55.85;102332.80;1841446;78;20160;-63
2022/03/22 04:35:32;;;;;;;;;;;;;;;2.27;55.80;102347.41;1841465;78;20148;-62
2022/03/22 04:38:00;;;;;;;;;;;;;;;2.49;56.11;102337.00;1841543;78;20406;-61
2022/03/22 04:40:28;;;;;;;;;;;;;;;2.85;56.12;102342.47;1841645;78;20125;-61
2022/03/22 04:42:56;;;;;;;;;;;;;;;3.15;56.19;102347.33;1841504;78;20109;-62
2022/03/22 04:45:25;;;;;;;;;;;;;;;3.51;56.04;102327.11;1841528;78;20117;-63
2022/03/22 04:47:52;;;;;;;;;;;;;;;3.83;55.75;102334.96;1841537;78;20153;-63
2022/03/22 04:50:20;;;;;;;;;;;;;;;4.11;55.24;102329.27;1841613;78;20119;-63
2022/03/22 04:58:19;;;;;;;;;;;;;;;4.66;54.33;102332.97;1841564;78;20152;-61
2022/03/22 05:00:48;;;;;;;;;;;;;;;4.81;54.33;102327.91;1841680;78;20205;-62
2022/03/22 05:03:16;;;;;;;;;;;;;;;5.15;54.39;102330.42;1841654;78;20121;-63
2022/03/22 05:08:32;;;;;;;;;;;;;;;5.86;54.24;102330.07;1841724;78;20114;-66
2022/03/22 05:10:59;;;;;;;;;;;;;;;6.25;54.06;102335.09;1841625;77;20129;-66
2022/03/22 05:13:27;;;;;;;;;;;;;;;6.61;54.33;102333.06;1841702;78;20105;-65
2022/03/22 05:15:54;;;;;;;;;;;;;;;6.99;54.08;102334.00;1841578;78;20118;-65
2022/03/22 05:18:23;;;;;;;;;;;;;;;7.34;53.82;102333.61;1884259;75;20115;-67
2022/03/22 05:20:50;;;;;;;;;;;;;;;7.72;53.39;102333.12;1903452;75;20130;-65
2022/03/22 05:23:18;;;;;;;;;;;;;;;7.96;52.01;102329.58;1903406;75;20193;-63
2022/03/22 05:25:46;;;;;;;;;;;;;;;8.08;52.04;102334.80;1903482;75;20111;-62
2022/03/22 05:28:14;;;;;;;;;;;;;;;8.36;51.88;102326.81;1913144;75;20145;-62
2022/03/22 05:30:41;;;;;;;;;;;;;;;8.58;51.20;102333.32;1915841;75;20388;-62
2022/03/22 05:33:09;;;;;;;;;;;;;;;8.82;51.24;102335.80;1915819;75;20106;-62
2022/03/22 05:35:37;;;;;;;;;;;;;;;9.12;51.19;102339.09;1915772;75;20119;-64
2022/03/22 05:38:05;;;;;;;;;;;;;;;9.47;50.92;102337.48;1915799;75;20115;-62
2022/03/22 05:40:33;;;;;;;;;;;;;;;9.69;50.82;102341.23;1915790;75;20196;-61
2022/03/22 05:43:02;;;;;;;;;;;;;;;9.94;50.31;102339.23;1915883;75;20124;-61
2022/03/22 05:45:31;;;;;;;;;;;;;;;10.13;49.79;102344.30;1915936;75;20114;-60
2022/03/22 05:48:00;;;;;;;;;;;;;;;10.21;49.27;102341.12;1915846;75;20131;-60
2022/03/22 05:50:28;;;;;;;;;;;;;;;10.48;48.77;102345.66;1915731;75;20200;-60
2022/03/22 05:52:56;;;;;;;;;;;;;;;10.47;47.88;102339.95;1915869;75;20141;-61
2022/03/22 05:55:24;;;;;;;;;;;;;;;10.45;47.49;102344.38;1915828;75;20119;-61
2022/03/22 05:57:51;;;;;;;;;;;;;;;10.36;45.44;102350.17;1915793;75;20103;-62
2022/03/22 06:00:19;;;;;;;;;;;;;;;10.21;44.59;102348.56;1915752;75;20153;-65
2022/03/22 06:02:47;;;;;;;;;;;;;;;10.20;44.94;102347.29;1915764;75;20115;-65
2022/03/22 06:05:17;;;;;;;;;;;;;;;10.39;45.36;102343.55;1915851;75;20146;-66
2022/03/22 06:07:45;;;;;;;;;;;;;;;10.57;45.49;102354.77;1915816;75;20114;-64
2022/03/22 06:10:13;;;;;;;;;;;;;;;10.05;44.26;102358.41;1915897;75;20102;-63
2022/03/22 06:12:53;;;;;;;;;;;;;;;9.13;44.08;102367.13;1915805;75;20114;-62
2022/03/22 06:15:29;;;;;;;;;;;;;;;8.59;45.05;102369.18;1915658;75;20381;-66
2022/03/22 06:18:01;;;;;;;;;;;;;;;8.80;45.42;102373.02;1899134;75;20148;-65
2022/03/22 06:20:34;;;;;;;;;;;;;;;9.61;45.74;102372.87;1882158;76;20147;-65
2022/03/22 06:23:01;;;;;;;;;;;;;;;10.35;45.56;102376.55;1882854;76;20151;-65
2022/03/22 06:25:28;;;;;;;;;;;;;;;10.99;44.91;102373.05;1882080;76;20159;-65
2022/03/22 06:27:57;;;;;;;;;;;;;;;11.42;44.39;102370.61;1874402;75;20128;-66
2022/03/22 06:30:25;;;;;;;;;;;;;;;11.48;43.80;102372.71;1862399;77;20151;-65
2022/03/22 06:32:54;;;;;;;;;;;;;;;10.85;43.51;102372.37;1862528;77;20425;-64
2022/03/22 06:35:28;;;;;;;;;;;;;;;10.49;43.88;102374.59;1907469;74;20227;-62
2022/03/22 06:37:57;;;;;;;;;;;;;;;10.82;43.95;102385.58;1915059;75;20396;-63
2022/03/22 06:40:29;;;;;;;;;;;;;;;10.63;43.93;102389.78;1914768;75;20141;-62
2022/03/22 06:42:58;;;;;;;;;;;;;;;10.19;43.85;102391.59;1914860;75;20149;-62
2022/03/22 06:45:26;;;;;;;;;;;;;;;9.69;43.96;102393.84;1914909;75;20114;-63
2022/03/22 06:47:54;;;;;;;;;;;;;;;9.46;44.23;102394.92;1914836;75;20107;-61
2022/03/22 06:50:24;;;;;;;;;;;;;;;9.39;44.46;102397.61;1914862;75;20146;-62
2022/03/22 06:52:51;;;;;;;;;;;;;;;9.62;44.73;102390.38;1914864;74;20154;-66
2022/03/22 06:55:22;;;;;;;;;;;;;;;10.18;44.54;102395.10;1914817;75;20099;-62
2022/03/22 06:57:53;;;;;;;;;;;;;;;10.93;44.42;102392.88;1914919;75;20123;-62
2022/03/22 07:00:22;;;;;;;;;;;;;;;11.58;44.04;102391.46;1914942;75;20392;-63
2022/03/22 07:02:50;;;;;;;;;;;;;;;12.19;43.43;102387.33;1914846;75;20118;-63
2022/03/22 07:05:18;;;;;;;;;;;;;;;12.73;42.55;102395.00;1914807;74;20116;-66
2022/03/22 07:07:46;;;;;;;;;;;;;;;13.27;41.58;102396.88;1914871;75;20153;-64
2022/03/22 07:10:15;;;;;;;;;;;;;;;13.75;41.09;102397.91;1914957;74;20118;-63
2022/03/22 07:12:57;;;;;;;;;;;;;;;14.15;40.57;102390.23;1914922;75;20395;-64
2022/03/22 07:15:35;;;;;;;;;;;;;;;14.41;39.71;102399.23;1915035;75;20372;-65
2022/03/22 07:18:05;;;;;;;;;;;;;;;14.74;38.99;102392.56;1914766;75;20205;-67
2022/03/22 07:20:33;;;;;;;;;;;;;;;14.99;38.52;102396.64;1914828;75;20114;-63
2022/03/22 07:23:01;;;;;;;;;;;;;;;15.29;37.34;102388.61;1915090;74;20131;-62
2022/03/22 07:25:29;;;;;;;;;;;;;;;15.56;37.57;102394.34;1914785;75;20118;-62
2022/03/22 07:27:57;;;;;;;;;;;;;;;15.81;37.07;102393.08;1914844;75;20118;-62
2022/03/22 07:30:25;;;;;;;;;;;;;;;15.80;36.23;102393.98;1914774;75;20114;-64
2022/03/22 07:32:55;;;;;;;;;;;;;;;15.71;34.93;102393.41;1914841;75;20126;-65
2022/03/22 07:35:23;;;;;;;;;;;;;;;15.67;34.88;102396.63;1908697;74;20145;-63
2022/03/22 07:40:39;;;;;;;;;;;;;;;15.99;35.45;102396.00;1893264;75;20124;-62
2022/03/22 07:43:07;;;;;;;;;;;;;;;16.30;34.85;102395.76;1893242;76;20257;-62
2022/03/22 07:45:36;;;;;;;;;;;;;;;16.06;33.41;102390.02;1893302;75;20120;-60
2022/03/22 07:48:05;;;;;;;;;;;;;;;16.04;33.55;102390.06;1893291;76;20121;-62
2022/03/22 07:53:19;;;;;;;;;;;;;;;15.97;33.89;102385.89;1893178;76;20120;-63
2022/03/22 07:55:47;;;;;;;;;;;;;;;16.09;33.70;102390.78;1893231;76;20100;-63
2022/03/22 07:58:15;;;;;;;;;;;;;;;16.58;33.44;102384.98;1893287;75;20120;-62
2022/03/22 08:00:43;;;;;;;;;;;;;;;16.89;32.40;102388.27;1893250;76;20151;-63
2022/03/22 08:03:15;;;;;;;;;;;;;;;16.37;32.52;102397.74;1893238;76;20147;-63
2022/03/22 08:05:41;;;;;;;;;;;;;;;16.08;32.12;102396.14;1892895;76;20117;-65
2022/03/22 08:08:09;;;;;;;;;;;;;;;16.25;31.68;102390.20;1893271;76;20159;-65
2022/03/22 08:10:36;;;;;;;;;;;;;;;16.40;31.82;102391.85;1893261;76;20147;-63
2022/03/22 08:13:06;;;;;;;;;;;;;;;16.76;31.94;102390.03;1893280;76;20139;-64
2022/03/22 08:15:34;;;;;;;;;;;;;;;17.04;31.67;102387.67;1893225;76;20409;-64
2022/03/22 08:18:01;;;;;;;;;;;;;;;17.35;31.89;102381.97;1895350;76;20116;-63
2022/03/22 08:20:30;;;;;;;;;;;;;;;17.68;31.69;102385.92;1896931;76;20120;-63
2022/03/22 08:23:07;;;;;;;;;;;;;;;17.73;30.68;102383.93;1896978;76;20142;-65
2022/03/22 08:25:32;;;;;;;;;;;;;;;17.81;31.07;102384.45;1895407;75;20117;-64
2022/03/22 08:28:00;;;;;;;;;;;;;;;17.93;30.22;102381.30;1895626;75;20151;-65
2022/03/22 08:30:29;;;;;;;;;;;;;;;17.91;30.63;102379.17;1896985;76;20116;-66
2022/03/22 08:32:58;;;;;;;;;;;;;;;18.02;30.08;102382.70;1896886;76;20132;-62
2022/03/22 08:35:27;;;;;;;;;;;;;;;18.07;30.32;102372.67;1897207;76;20370;-63
2022/03/22 08:37:55;;;;;;;;;;;;;;;18.13;30.40;102373.75;1897030;76;20128;-63
2022/03/22 08:40:24;;;;;;;;;;;;;;;18.25;29.56;102375.46;1894118;76;20104;-65
2022/03/22 08:42:53;;;;;;;;;;;;;;;17.99;30.22;102376.16;1893109;76;20124;-67
2022/03/22 08:45:22;;;;;;;;;;;;;;;17.73;30.05;102374.13;1892967;76;20424;-61
2022/03/22 08:47:51;;;;;;;;;;;;;;;17.19;29.27;102366.22;1893070;76;20385;-62
2022/03/22 08:50:20;;;;;;;;;;;;;;;17.16;29.79;102371.66;1893030;76;20112;-65
2022/03/22 08:52:49;;;;;;;;;;;;;;;17.51;30.22;102365.34;1867034;76;20593;-64
2022/03/22 08:55:18;;;;;;;;;;;;;;;17.66;29.57;102373.14;1893151;76;20120;-66
2022/03/22 08:57:48;;;;;;;;;;;;;;;17.95;29.77;102373.23;1893365;76;20396;-64
2022/03/22 09:00:17;;;;;;;;;;;;;;;18.26;28.87;102364.73;1892989;76;20760;-64
2022/03/22 09:02:46;;;;;;;;;;;;;;;18.28;28.83;102374.00;1892554;74;20525;-63
2022/03/22 09:08:01;;;;;;;;;;;;;;;17.99;29.55;102365.97;1898571;74;20112;-63
2022/03/22 09:10:29;;;;;;;;;;;;;;;18.11;28.91;102363.62;1899203;74;20115;-62
2022/03/22 09:12:58;;;;;;;;;;;;;;;18.02;28.39;102365.37;1890854;74;20117;-62
2022/03/22 09:15:27;;;;;;;;;;;;;;;17.91;28.97;102367.66;1889962;74;20121;-61
2022/03/22 09:17:55;;;;;;;;;;;;;;;17.89;28.70;102363.72;1889649;74;20409;-62
2022/03/22 09:20:24;;;;;;;;;;;;;;;17.83;28.54;102365.74;1893168;74;20177;-62
2022/03/22 09:22:53;;;;;;;;;;;;;;;17.54;28.89;102363.89;1881667;74;20525;-62
2022/03/22 09:25:27;;;;;;;;;;;;;;;17.22;29.62;102364.75;1890066;74;20425;-62
2022/03/22 09:27:51;;;;;;;;;;;;;;;17.31;29.60;102367.03;1886829;74;20173;-61
2022/03/22 09:30:19;;;;;;;;;;;;;;;17.35;29.97;102364.66;1898226;74;20175;-61
2022/03/22 09:32:47;;;;;;;;;;;;;;;17.41;30.27;102358.22;1883000;74;20121;-64
2022/03/22 09:35:19;;;;;;;;;;;;;;;17.23;30.58;102350.99;1896480;74;20147;-66
2022/03/22 09:37:46;;;;;;;;;;;;;;;16.68;31.54;102342.93;1879558;74;20254;-63
2022/03/22 09:40:14;;;;;;;;;;;;;;;16.50;32.54;102357.80;1882973;74;20123;-64
2022/03/22 09:42:42;;;;;;;;;;;;;;;16.71;32.50;102356.56;1889642;74;20121;-70
2022/03/22 09:45:11;;;;;;;;;;;;;;;16.95;32.63;102348.98;1901195;74;20145;-70
2022/03/22 09:47:39;;;;;;;;;;;;;;;17.24;32.13;102349.58;1893344;74;20241;-70
2022/03/22 09:50:07;;;;;;;;;;;;;;;16.89;31.98;102358.52;1890191;74;20116;-69
2022/03/22 09:52:36;;;;;;;;;;;;;;;16.69;32.01;102354.43;1893631;74;20121;-65
2022/03/22 09:55:05;;;;;;;;;;;;;;;16.64;32.16;102351.11;1883807;76;20186;-63
2022/03/22 09:57:33;;;;;;;;;;;;;;;16.63;32.14;102322.77;1883740;76;20379;-61
2022/03/22 10:00:01;;;;;;;;;;;;;;;16.46;32.10;102365.97;1891790;74;20102;-61
2022/03/22 10:02:32;;;;;;;;;;;;;;;16.58;32.18;102341.11;1900278;74;20157;-64
2022/03/22 10:05:00;;;;;;;;;;;;;;;16.56;32.01;102340.73;1916071;74;20102;-68
2022/03/22 10:07:29;;;;;;;;;;;;;;;16.73;31.56;102344.09;1926321;74;20152;-65
2022/03/22 10:10:00;;;;;;;;;;;;;;;16.68;31.50;102341.60;1926758;74;20114;-64
2022/03/22 10:12:29;;;;;;;;;;;;;;;16.29;32.17;102332.05;1926918;74;20118;-65
2022/03/22 10:15:17;;;;;;;;;;;;;;;16.24;32.38;102331.35;1926732;74;20111;-63
2022/03/22 10:17:46;;;;;;;;;;;;;;;16.25;32.09;102338.38;1902996;74;20375;-63
2022/03/22 10:20:24;;;;;;;;;;;;;;;16.04;32.58;102320.12;1871596;77;20164;-60
2022/03/22 10:22:56;;;;;;;;;;;;;;;16.16;32.13;102334.30;1871732;77;20533;-63
2022/03/22 10:25:23;;;;;;;;;;;;;;;16.08;31.85;102326.59;1871513;77;20199;-62
2022/03/22 10:27:55;;;;;;;;;;;;;;;15.18;32.39;102331.47;1871583;77;20121;-63
2022/03/22 10:30:23;;;;;;;;;;;;;;;14.73;33.52;102333.81;1871554;77;20176;-64
2022/03/22 10:32:51;;;;;;;;;;;;;;;14.78;32.95;102321.28;1889315;74;20108;-62
2022/03/22 10:35:21;;;;;;;;;;;;;;;14.80;33.19;102334.03;1907214;74;20114;-64
2022/03/22 10:37:50;;;;;;;;;;;;;;;14.16;33.53;102313.81;1915029;74;20111;-65
2022/03/22 10:40:25;;;;;;;;;;;;;;;13.98;33.40;102332.44;1889801;74;20116;-64
2022/03/22 10:42:54;;;;;;;;;;;;;;;13.22;34.01;102338.78;1892482;76;20121;-65
2022/03/22 10:45:22;;;;;;;;;;;;;;;13.18;35.01;102320.39;1890931;76;20121;-64
2022/03/22 10:47:50;;;;;;;;;;;;;;;13.21;34.40;102326.48;1890867;76;20147;-65
2022/03/22 10:50:18;;;;;;;;;;;;;;;13.21;34.82;102325.62;1890762;76;20147;-64
2022/03/22 10:52:53;;;;;;;;;;;;;;;13.54;34.96;102325.67;1890783;76;20112;-65
2022/03/22 10:55:22;;;;;;;;;;;;;;;14.00;34.19;102333.70;1889986;76;20121;-64
2022/03/22 10:57:52;;;;;;;;;;;;;;;13.50;33.65;102326.20;1890795;76;20405;-64
2022/03/22 11:00:20;;;;;;;;;;;;;;;12.88;34.41;102325.52;1890699;76;20390;-65
2022/03/22 11:02:49;;;;;;;;;;;;;;;12.66;34.98;102336.57;1889097;76;20382;-60
2022/03/22 11:05:19;;;;;;;;;;;;;;;12.40;35.29;102341.11;1852452;76;20510;-57
2022/03/22 11:07:48;;;;;;;;;;;;;;;12.41;35.89;102332.72;1851676;77;20146;-58
2022/03/22 11:10:24;;;;;;;;;;;;;;;12.45;36.41;102331.74;1884659;76;20117;-61
2022/03/22 11:12:49;;;;;;;;;;;;;;;12.78;36.59;102331.91;1870861;76;20119;-61
2022/03/22 11:15:17;;;;;;;;;;;;;;;12.87;36.26;102326.41;1862407;75;20276;-59
2022/03/22 11:17:47;;;;;;;;;;;;;;;12.61;36.56;102342.40;1856503;76;20123;-61
2022/03/22 11:20:15;;;;;;;;;;;;;;;12.29;37.22;102334.72;1851954;76;20123;-60
2022/03/22 11:22:50;;;;;;;;;;;;;;;11.91;37.66;102324.46;1854041;77;20298;-60
2022/03/22 11:25:19;;;;;;;;;;;;;;;11.69;37.96;102336.30;1844908;76;20432;-65
2022/03/22 11:28:01;;;;;;;;;;;;;;;11.68;38.53;102334.11;1850597;77;20127;-61
2022/03/22 11:30:28;;;;;;;;;;;;;;;11.87;38.95;102342.55;1844374;77;20147;-59
2022/03/22 11:35:47;;;;;;;;;;;;;;;11.48;39.32;102343.70;1844444;77;20115;-60
2022/03/22 11:38:16;;;;;;;;;;;;;;;11.59;39.55;102339.55;1843268;77;20193;-63
2022/03/22 11:43:44;;;;;;;;;;;;;;;11.47;39.44;102339.77;1910133;74;20165;-59
2022/03/22 11:46:11;;;;;;;;;;;;;;;11.36;39.62;102342.58;1920151;74;20405;-59
2022/03/22 11:48:40;;;;;;;;;;;;;;;11.41;39.63;102339.42;1906853;74;20384;-64
2022/03/22 11:51:09;;;;;;;;;;;;;;;11.54;39.68;102354.12;1905726;74;20163;-68
2022/03/22 11:53:45;;;;;;;;;;;;;;;11.74;39.46;102347.64;1904648;74;20242;-62
2022/03/22 11:56:13;;;;;;;;;;;;;;;11.72;39.35;102352.08;1915124;74;20157;-63
2022/03/22 11:58:52;;;;;;;;;;;;;;;11.59;39.25;102345.70;1897052;74;20367;-63
2022/03/22 12:01:20;;;;;;;;;;;;;;;11.40;39.57;102345.16;1902946;74;20227;-61
2022/03/22 12:03:51;;;;;;;;;;;;;;;11.12;40.17;102351.75;1899044;74;20113;-64
2022/03/22 12:06:19;;;;;;;;;;;;;;;10.96;40.88;102351.14;1901136;74;20118;-68
2022/03/22 12:08:48;;;;;;;;;;;;;;;11.22;40.81;102358.64;1910856;74;20116;-64
2022/03/22 12:11:16;;;;;;;;;;;;;;;11.19;39.88;102356.94;1895692;76;20108;-64
2022/03/22 12:13:45;;;;;;;;;;;;;;;10.99;39.85;102354.59;1897397;74;20167;-67
2022/03/22 12:16:13;;;;;;;;;;;;;;;10.82;40.09;102355.27;1901539;74;20117;-68
2022/03/22 12:18:41;;;;;;;;;;;;;;;10.87;39.84;102344.69;1913956;75;20110;-67
2022/03/22 12:21:18;;;;;;;;;;;;;;;11.05;39.64;102332.55;1922854;75;20106;-67
2022/03/22 12:23:47;;;;;;;;;;;;;;;11.10;39.27;102354.44;1886800;75;20109;-65
2022/03/22 12:26:15;;;;;;;;;;;;;;;11.03;39.22;102362.44;1895368;76;20171;-68
2022/03/22 12:28:50;;;;;;;;;;;;;;;10.90;39.29;102356.05;1895385;76;20195;-63
2022/03/22 12:31:21;;;;;;;;;;;;;;;10.84;39.07;102363.16;1895115;75;20151;-64
2022/03/22 12:33:52;;;;;;;;;;;;;;;10.64;39.42;102355.08;1896256;75;20382;-63
2022/03/22 12:36:21;;;;;;;;;;;;;;;10.60;39.62;102354.70;1896239;76;20124;-64
2022/03/22 12:38:48;;;;;;;;;;;;;;;10.66;39.31;102348.05;1896233;76;20124;-68
2022/03/22 12:41:17;;;;;;;;;;;;;;;10.69;39.12;102345.81;1896240;76;20225;-63
2022/03/22 12:43:45;;;;;;;;;;;;;;;10.81;39.08;102339.92;1885956;75;20204;-70
2022/03/22 12:46:16;;;;;;;;;;;;;;;10.93;38.74;102355.13;1881509;76;20107;-73
2022/03/22 12:48:43;;;;;;;;;;;;;;;10.79;38.06;102352.25;1880981;76;20119;-69
2022/03/22 12:51:11;;;;;;;;;;;;;;;10.66;38.66;102351.11;1881479;76;20158;-70
2022/03/22 12:53:39;;;;;;;;;;;;;;;10.58;38.48;102347.27;1880790;76;20193;-67
2022/03/22 12:56:14;;;;;;;;;;;;;;;10.55;38.67;102344.66;1881544;76;20111;-64
2022/03/22 12:58:42;;;;;;;;;;;;;;;10.55;38.57;102331.49;1897556;75;20109;-65
2022/03/22 13:01:10;;;;;;;;;;;;;;;10.53;37.90;102352.61;1913884;75;20149;-65
2022/03/22 13:03:38;;;;;;;;;;;;;;;10.46;37.62;102353.58;1913251;75;20212;-68
2022/03/22 13:06:09;;;;;;;;;;;;;;;10.43;38.08;102353.16;1913734;75;20149;-67
2022/03/22 13:11:29;;;;;;;;;;;;;;;10.45;37.81;102348.33;1913882;75;20124;-67
2022/03/22 13:16:53;;;;;;;;;;;;;;;10.32;37.35;102359.00;1913954;75;20200;-68
2022/03/22 13:19:21;;;;;;;;;;;;;;;10.28;37.52;102359.04;1913382;75;20111;-68
2022/03/22 13:21:49;;;;;;;;;;;;;;;10.22;37.30;102345.51;1913841;75;20103;-66
2022/03/22 13:24:24;;;;;;;;;;;;;;;10.21;37.28;102363.49;1914039;75;20115;-67
2022/03/22 13:26:56;;;;;;;;;;;;;;;10.17;37.20;102357.84;1912500;75;20111;-67
2022/03/22 13:29:25;;;;;;;;;;;;;;;10.16;37.35;102360.03;1912104;75;20115;-65